Time;durP1;ratioP1;P1;durP2;ratioP2;P2;SDS_P1;SDS_P2;PMS_P1;PMS_P2;Temp;Humidity;BMP_temperature;BMP_pressure;BME280_temperature;BME280_humidity;BME280_pressure;Samples;Min_cycle;Max_cycle;Signal;HPM_P1;HPM_P2
2023/11/18 00:00:49;;;;;;;35.67;11.90;;;3.70;99.90;;;;;;5030902;28;20494;-53
2023/11/18 00:03:15;;;;;;;37.13;10.80;;;3.70;99.90;;;;;;5031430;28;20029;-55
2023/11/18 00:05:41;;;;;;;34.93;10.50;;;3.80;99.90;;;;;;5031484;28;20112;-52
2023/11/18 00:08:06;;;;;;;38.10;10.93;;;3.80;99.90;;;;;;5031704;28;20033;-53
2023/11/18 00:10:32;;;;;;;30.63;9.93;;;3.80;99.90;;;;;;5031020;28;20026;-56
2023/11/18 00:12:58;;;;;;;35.13;10.90;;;3.90;99.90;;;;;;5031127;28;20033;-55
2023/11/18 00:15:23;;;;;;;33.80;10.77;;;3.80;99.90;;;;;;5031075;28;20075;-55
2023/11/18 00:17:49;;;;;;;40.23;12.00;;;3.80;99.90;;;;;;5031042;28;20466;-54
2023/11/18 00:20:16;;;;;;;31.70;10.33;;;3.90;99.90;;;;;;5030759;28;20021;-55
2023/11/18 00:22:43;;;;;;;31.03;11.20;;;3.80;99.90;;;;;;5030906;28;20506;-54
2023/11/18 00:25:09;;;;;;;38.50;10.17;;;3.80;99.90;;;;;;5030813;28;20478;-55
2023/11/18 00:27:38;;;;;;;40.67;11.23;;;3.80;99.90;;;;;;5030882;28;20033;-55
2023/11/18 00:30:13;;;;;;;41.78;12.10;;;3.90;99.90;;;;;;5030441;28;20025;-55
2023/11/18 00:32:39;;;;;;;32.93;8.90;;;3.90;99.90;;;;;;5029984;28;20034;-51
2023/11/18 00:35:06;;;;;;;36.37;11.67;;;3.90;99.90;;;;;;5030768;28;20072;-52
2023/11/18 00:37:33;;;;;;;38.20;11.27;;;3.90;99.90;;;;;;5029582;28;20033;-55
2023/11/18 00:39:58;;;;;;;34.17;10.53;;;3.90;99.90;;;;;;5030335;28;20439;-55
2023/11/18 00:42:25;;;;;;;33.30;9.67;;;3.90;99.90;;;;;;5029301;28;20068;-53
2023/11/18 00:44:50;;;;;;;36.70;10.27;;;3.90;99.90;;;;;;5029628;28;20029;-55
2023/11/18 00:47:16;;;;;;;42.57;11.37;;;3.90;99.90;;;;;;5030682;28;20037;-56
2023/11/18 00:49:41;;;;;;;35.57;10.10;;;3.90;99.90;;;;;;5030069;28;20037;-54
2023/11/18 00:52:08;;;;;;;35.30;10.27;;;3.80;99.90;;;;;;5030655;28;20025;-55
2023/11/18 00:54:36;;;;;;;36.03;10.60;;;3.90;99.90;;;;;;5030514;28;20104;-53
2023/11/18 00:57:01;;;;;;;29.93;8.90;;;3.90;99.90;;;;;;5029226;28;20063;-55
2023/11/18 00:59:27;;;;;;;36.37;11.13;;;4.00;99.90;;;;;;5028733;28;20026;-55
2023/11/18 01:01:53;;;;;;;36.53;11.53;;;4.00;99.90;;;;;;5029276;28;20037;-52
2023/11/18 01:04:19;;;;;;;35.23;10.23;;;4.10;99.90;;;;;;5029557;28;20034;-53
2023/11/18 01:06:45;;;;;;;36.90;10.00;;;4.00;99.90;;;;;;5029130;28;20025;-55
2023/11/18 01:09:12;;;;;;;35.40;10.37;;;4.10;99.90;;;;;;5028792;28;20402;-55
2023/11/18 01:11:37;;;;;;;33.87;9.50;;;4.10;99.90;;;;;;5030448;28;20486;-56
2023/11/18 01:14:03;;;;;;;33.73;10.13;;;4.10;99.90;;;;;;5032973;28;20064;-55
2023/11/18 01:16:29;;;;;;;40.80;9.87;;;4.10;99.90;;;;;;5016674;28;20025;-55
2023/11/18 01:18:55;;;;;;;29.30;9.83;;;4.00;99.90;;;;;;5032826;28;20030;-54
2023/11/18 01:21:21;;;;;;;38.30;10.10;;;4.10;99.90;;;;;;5033148;28;20033;-56
2023/11/18 01:23:48;;;;;;;34.43;9.63;;;4.10;99.90;;;;;;5034394;28;20029;-55
2023/11/18 01:26:15;;;;;;;25.83;9.97;;;4.10;99.90;;;;;;5033262;28;20496;-54
2023/11/18 01:28:45;;;;;;;28.93;9.57;;;4.10;99.90;;;;;;5034031;28;20033;-55
2023/11/18 01:31:11;;;;;;;34.37;10.33;;;4.10;99.90;;;;;;5033193;28;20034;-54
2023/11/18 01:33:41;;;;;;;27.00;8.77;;;4.10;99.90;;;;;;5034581;28;20029;-52
2023/11/18 01:36:08;;;;;;;36.90;9.37;;;4.00;99.90;;;;;;5033017;28;20065;-55
2023/11/18 01:38:35;;;;;;;32.20;10.37;;;4.00;99.90;;;;;;5033836;28;20079;-54
2023/11/18 01:41:00;;;;;;;35.57;10.83;;;4.00;99.90;;;;;;5034452;28;20049;-56
2023/11/18 01:43:27;;;;;;;37.10;10.63;;;4.00;99.90;;;;;;5032857;28;20552;-56
2023/11/18 01:45:53;;;;;;;32.87;9.20;;;4.00;99.90;;;;;;5034028;28;20038;-55
2023/11/18 01:48:22;;;;;;;29.70;9.60;;;4.00;99.90;;;;;;5016008;28;20060;-55
2023/11/18 01:50:48;;;;;;;32.50;9.35;;;4.00;99.90;;;;;;5032680;28;20044;-56
2023/11/18 01:53:14;;;;;;;28.50;10.77;;;4.00;99.90;;;;;;5033258;28;20037;-54
2023/11/18 01:55:41;;;;;;;36.30;11.70;;;3.90;99.90;;;;;;5034221;28;20376;-54
2023/11/18 01:58:10;;;;;;;34.33;10.30;;;3.90;99.90;;;;;;5033665;28;20458;-55
2023/11/18 02:00:38;;;;;;;33.33;10.20;;;3.90;99.90;;;;;;5032206;28;20087;-55
2023/11/18 02:03:05;;;;;;;37.77;10.30;;;3.80;99.90;;;;;;5032421;28;21011;-51
2023/11/18 02:05:34;;;;;;;36.63;10.50;;;3.90;99.90;;;;;;5032277;28;20029;-54
2023/11/18 02:08:04;;;;;;;29.45;9.88;;;3.90;99.90;;;;;;5033210;28;20025;-56
2023/11/18 02:10:31;;;;;;;37.90;10.23;;;3.90;99.90;;;;;;5032237;28;20060;-54
2023/11/18 02:13:24;;;;;;;41.30;11.10;;;3.90;99.90;;;;;;5031964;28;20034;-55
2023/11/18 02:15:57;;;;;;;28.10;9.03;;;3.90;99.90;;;;;;5032022;28;20047;-54
2023/11/18 02:18:28;;;;;;;29.57;9.87;;;3.90;99.90;;;;;;5031518;28;20052;-54
2023/11/18 02:20:59;;;;;;;31.43;11.10;;;3.80;99.90;;;;;;5032090;28;20033;-55
2023/11/18 02:23:26;;;;;;;31.03;9.70;;;3.90;99.90;;;;;;5032078;28;20041;-55
2023/11/18 02:25:52;;;;;;;29.13;9.30;;;3.90;99.90;;;;;;5030544;28;20052;-51
2023/11/18 02:28:19;;;;;;;31.83;9.10;;;4.10;99.90;;;;;;5031580;28;20033;-54
2023/11/18 02:30:45;;;;;;;28.17;9.57;;;4.10;99.90;;;;;;5032860;28;20025;-54
2023/11/18 02:33:18;;;;;;;28.40;9.63;;;4.10;99.90;;;;;;5031880;28;20139;-55
2023/11/18 02:35:58;;;;;;;32.67;10.23;;;4.10;99.90;;;;;;5032957;28;20034;-52
2023/11/18 02:38:31;;;;;;;24.38;8.70;;;4.20;99.90;;;;;;5032533;28;20052;-56
2023/11/18 02:41:01;;;;;;;25.37;8.20;;;4.20;99.90;;;;;;5032910;28;20037;-55
2023/11/18 02:43:28;;;;;;;21.85;8.32;;;4.20;99.90;;;;;;5031538;28;20133;-51
2023/11/18 02:45:56;;;;;;;26.37;8.87;;;4.20;99.90;;;;;;5031559;28;20041;-55
2023/11/18 02:48:23;;;;;;;25.87;9.77;;;4.20;99.90;;;;;;5032476;28;20040;-53
2023/11/18 02:50:49;;;;;;;23.50;8.93;;;4.20;99.90;;;;;;5031322;28;20091;-54
2023/11/18 02:53:15;;;;;;;29.23;9.77;;;4.20;99.90;;;;;;5032757;28;20478;-55
2023/11/18 02:55:41;;;;;;;30.00;9.57;;;4.20;99.90;;;;;;5032561;28;20394;-52
2023/11/18 02:58:07;;;;;;;25.50;9.40;;;4.20;99.90;;;;;;5032610;28;20036;-53
2023/11/18 03:00:33;;;;;;;26.23;8.70;;;4.20;99.90;;;;;;5031249;28;20490;-55
2023/11/18 03:02:59;;;;;;;30.00;9.87;;;4.20;99.90;;;;;;5032732;28;20387;-55
2023/11/18 03:05:26;;;;;;;26.67;8.63;;;4.20;99.90;;;;;;5032325;28;20033;-55
2023/11/18 03:07:54;;;;;;;28.07;8.97;;;4.20;99.90;;;;;;5032319;28;20021;-56
2023/11/18 03:10:23;;;;;;;25.47;9.07;;;4.20;99.90;;;;;;5030722;28;20030;-55
2023/11/18 03:12:53;;;;;;;22.17;7.40;;;4.20;99.90;;;;;;5030931;28;20084;-55
2023/11/18 03:15:21;;;;;;;30.50;8.37;;;4.20;99.90;;;;;;5030814;28;20041;-56
2023/11/18 03:17:48;;;;;;;26.87;8.87;;;4.30;99.90;;;;;;5032187;28;20029;-55
2023/11/18 03:20:16;;;;;;;27.40;9.47;;;4.30;99.90;;;;;;5030381;28;20040;-52
2023/11/18 03:22:46;;;;;;;27.13;8.10;;;4.30;99.90;;;;;;5031022;28;20167;-51
2023/11/18 03:25:13;;;;;;;24.90;9.00;;;4.30;99.90;;;;;;5032502;28;20464;-55
2023/11/18 03:27:39;;;;;;;26.50;8.30;;;4.30;99.90;;;;;;5030739;28;20043;-54
2023/11/18 03:30:07;;;;;;;23.30;7.87;;;4.30;99.90;;;;;;5030118;28;20042;-52
2023/11/18 03:32:32;;;;;;;26.00;8.77;;;4.30;99.90;;;;;;5031805;28;20121;-55
2023/11/18 03:35:01;;;;;;;17.03;7.07;;;4.30;99.90;;;;;;5030371;28;20120;-53
2023/11/18 03:37:26;;;;;;;24.87;8.80;;;4.30;99.90;;;;;;5029943;28;20032;-51
2023/11/18 03:39:53;;;;;;;19.87;7.57;;;4.30;99.90;;;;;;5031445;28;20021;-52
2023/11/18 03:42:18;;;;;;;23.30;8.73;;;4.30;99.90;;;;;;5031700;28;20025;-53
2023/11/18 03:44:47;;;;;;;21.97;8.03;;;4.30;99.90;;;;;;5030592;28;20029;-53
2023/11/18 03:47:14;;;;;;;26.50;8.18;;;4.20;99.90;;;;;;5032150;28;20040;-50
2023/11/18 03:49:40;;;;;;;21.60;8.07;;;4.20;99.90;;;;;;5030060;28;20052;-50
2023/11/18 03:52:07;;;;;;;24.73;7.57;;;4.20;99.90;;;;;;5030059;28;20110;-54
2023/11/18 03:54:33;;;;;;;23.10;8.80;;;4.20;99.90;;;;;;5030113;28;20033;-54
2023/11/18 03:56:59;;;;;;;26.83;8.80;;;4.20;99.90;;;;;;5031386;28;20041;-52
2023/11/18 03:59:25;;;;;;;24.33;8.07;;;4.20;99.90;;;;;;5031072;28;20030;-53
2023/11/18 04:01:51;;;;;;;26.27;9.47;;;4.30;99.90;;;;;;5030028;28;20040;-54
2023/11/18 04:04:17;;;;;;;25.53;9.03;;;4.20;99.90;;;;;;5030071;28;20120;-54
2023/11/18 04:06:43;;;;;;;28.97;9.67;;;4.30;99.90;;;;;;5029952;28;20026;-55
2023/11/18 04:09:10;;;;;;;23.77;8.80;;;4.40;99.90;;;;;;5030928;28;20026;-54
2023/11/18 04:11:36;;;;;;;21.47;8.23;;;4.40;99.90;;;;;;5013584;28;20044;-54
2023/11/18 04:14:03;;;;;;;24.57;8.33;;;4.30;99.90;;;;;;5030324;28;20045;-52
2023/11/18 04:16:29;;;;;;;27.30;8.67;;;4.30;99.90;;;;;;5031419;28;20029;-50
2023/11/18 04:18:55;;;;;;;24.63;8.33;;;4.30;99.90;;;;;;5030811;28;20117;-53
2023/11/18 04:21:21;;;;;;;22.00;8.33;;;4.40;99.90;;;;;;5029864;28;20072;-53
2023/11/18 04:23:47;;;;;;;23.37;7.63;;;4.40;99.90;;;;;;5029877;28;20080;-49
2023/11/18 04:26:13;;;;;;;23.83;8.73;;;4.40;99.90;;;;;;5031053;28;20032;-54
2023/11/18 04:28:39;;;;;;;21.97;8.70;;;4.40;99.90;;;;;;5029331;28;20035;-54
2023/11/18 04:31:05;;;;;;;19.60;8.17;;;4.40;99.90;;;;;;5031059;28;20037;-54
2023/11/18 04:33:31;;;;;;;24.10;8.70;;;4.30;99.90;;;;;;5031161;28;20031;-55
2023/11/18 04:35:57;;;;;;;23.27;7.47;;;4.30;99.90;;;;;;5030756;28;20036;-52
2023/11/18 04:38:23;;;;;;;17.70;7.50;;;4.20;99.90;;;;;;5029222;28;20029;-53
2023/11/18 04:40:49;;;;;;;21.00;7.90;;;4.20;99.90;;;;;;5031301;28;20112;-53
2023/11/18 04:43:15;;;;;;;15.93;6.40;;;4.20;99.90;;;;;;5031053;28;20440;-54
2023/11/18 04:45:42;;;;;;;24.07;8.13;;;4.20;99.90;;;;;;5029380;28;20117;-51
2023/11/18 04:48:09;;;;;;;20.33;8.33;;;4.20;99.90;;;;;;5029658;28;20048;-50
2023/11/18 04:50:35;;;;;;;17.03;6.63;;;4.20;99.90;;;;;;5030366;28;20025;-50
2023/11/18 04:53:00;;;;;;;21.53;8.10;;;4.10;99.90;;;;;;5030558;28;20029;-49
2023/11/18 04:55:26;;;;;;;22.77;8.23;;;4.10;99.90;;;;;;5030731;28;20560;-54
2023/11/18 04:57:52;;;;;;;25.70;8.07;;;4.10;99.90;;;;;;5030637;28;20026;-54
2023/11/18 05:00:19;;;;;;;19.50;8.10;;;4.10;99.90;;;;;;5030644;28;20470;-52
2023/11/18 05:02:48;;;;;;;23.40;8.00;;;4.10;99.90;;;;;;5031150;28;20117;-54
2023/11/18 05:05:17;;;;;;;23.23;7.80;;;4.10;99.90;;;;;;5030523;28;20029;-53
2023/11/18 05:07:43;;;;;;;19.60;6.65;;;4.10;99.90;;;;;;5030611;28;20034;-54
2023/11/18 05:10:10;;;;;;;21.60;7.77;;;4.10;99.90;;;;;;5030075;28;20109;-55
2023/11/18 05:12:36;;;;;;;19.53;6.67;;;4.10;99.90;;;;;;5030521;28;20036;-54
2023/11/18 05:15:07;;;;;;;23.00;8.17;;;4.10;99.90;;;;;;5030519;28;20084;-51
2023/11/18 05:17:35;;;;;;;25.60;7.77;;;4.20;99.90;;;;;;5030584;28;20033;-51
2023/11/18 05:20:08;;;;;;;22.70;8.47;;;4.20;99.90;;;;;;5030322;28;20144;-55
2023/11/18 05:22:34;;;;;;;21.00;7.97;;;4.20;99.90;;;;;;5030876;28;20462;-54
2023/11/18 05:24:59;;;;;;;17.70;7.30;;;4.10;99.90;;;;;;5029256;28;20098;-54
2023/11/18 05:27:26;;;;;;;22.33;8.53;;;4.10;99.90;;;;;;5030322;28;20502;-55
2023/11/18 05:29:55;;;;;;;22.07;8.20;;;4.10;99.90;;;;;;5029937;28;20148;-53
2023/11/18 05:32:23;;;;;;;20.63;7.83;;;4.20;99.90;;;;;;5030311;28;20074;-54
2023/11/18 05:34:53;;;;;;;18.90;6.83;;;4.20;99.90;;;;;;5030061;28;20470;-53
2023/11/18 05:37:19;;;;;;;22.33;8.30;;;4.20;99.90;;;;;;5030399;28;20080;-55
2023/11/18 05:39:45;;;;;;;23.90;7.87;;;4.20;99.90;;;;;;5029781;28;20109;-55
2023/11/18 05:42:11;;;;;;;20.17;6.83;;;4.30;99.90;;;;;;5030243;28;20554;-55
2023/11/18 05:44:39;;;;;;;24.00;8.10;;;4.40;99.90;;;;;;5030078;28;20071;-54
2023/11/18 05:47:06;;;;;;;22.20;8.00;;;4.40;99.90;;;;;;5030682;28;20061;-55
2023/11/18 05:49:33;;;;;;;23.37;8.30;;;4.40;99.90;;;;;;5029726;28;20072;-55
2023/11/18 05:51:59;;;;;;;24.87;8.23;;;4.40;99.90;;;;;;5030331;28;20462;-51
2023/11/18 05:54:25;;;;;;;23.43;8.30;;;4.40;99.90;;;;;;5030082;28;20120;-55
2023/11/18 05:56:51;;;;;;;20.37;7.87;;;4.40;99.90;;;;;;5030078;28;20087;-56
2023/11/18 05:59:17;;;;;;;19.50;7.07;;;4.40;99.90;;;;;;5030632;28;20116;-55
2023/11/18 06:01:42;;;;;;;21.03;7.00;;;4.50;99.90;;;;;;5033688;28;20085;-54
2023/11/18 06:04:08;;;;;;;19.23;7.47;;;4.50;99.90;;;;;;5033936;28;20490;-56
2023/11/18 06:06:34;;;;;;;21.17;7.80;;;4.50;99.90;;;;;;5033609;28;20030;-54
2023/11/18 06:09:04;;;;;;;22.67;7.87;;;4.60;99.90;;;;;;5032999;28;20128;-53
2023/11/18 06:11:31;;;;;;;23.50;8.40;;;4.50;99.90;;;;;;5033442;28;20401;-54
2023/11/18 06:13:57;;;;;;;22.47;8.27;;;4.60;99.90;;;;;;5033264;28;20084;-54
2023/11/18 06:16:24;;;;;;;20.60;7.03;;;4.70;99.90;;;;;;5033490;28;20044;-54
2023/11/18 06:18:53;;;;;;;21.60;8.13;;;4.60;99.90;;;;;;5033068;28;20383;-52
2023/11/18 06:21:20;;;;;;;22.77;7.40;;;4.70;99.90;;;;;;5033402;28;20041;-52
2023/11/18 06:23:48;;;;;;;19.27;7.53;;;4.70;99.90;;;;;;5033676;28;20071;-54
2023/11/18 06:26:14;;;;;;;24.30;7.27;;;4.70;99.90;;;;;;5033617;28;20064;-54
2023/11/18 06:28:44;;;;;;;29.90;9.70;;;4.80;99.90;;;;;;5033043;28;20135;-55
2023/11/18 06:31:11;;;;;;;20.13;7.90;;;4.80;99.90;;;;;;5033245;28;20033;-56
2023/11/18 06:33:45;;;;;;;22.90;9.57;;;4.80;99.90;;;;;;5033022;28;20124;-52
2023/11/18 06:36:13;;;;;;;15.77;6.53;;;4.90;99.90;;;;;;5032251;28;20034;-54
2023/11/18 06:38:43;;;;;;;22.67;8.25;;;5.00;99.90;;;;;;5031703;28;20033;-53
2023/11/18 06:41:11;;;;;;;20.50;7.37;;;5.00;99.90;;;;;;5033103;28;20041;-54
2023/11/18 06:43:56;;;;;;;22.70;8.10;;;5.00;99.90;;;;;;5033022;28;20184;-54
2023/11/18 06:46:23;;;;;;;23.33;8.83;;;5.00;99.90;;;;;;5033039;28;20037;-55
2023/11/18 06:48:54;;;;;;;20.10;8.27;;;4.90;99.90;;;;;;5032651;28;20029;-50
2023/11/18 06:51:24;;;;;;;18.40;7.83;;;5.00;99.90;;;;;;5033219;28;20325;-50
2023/11/18 06:53:57;;;;;;;21.03;7.80;;;4.90;99.90;;;;;;5033057;28;20088;-53
2023/11/18 06:56:26;;;;;;;20.57;7.00;;;5.00;99.90;;;;;;5033067;28;20386;-54
2023/11/18 06:58:53;;;;;;;20.40;7.00;;;4.90;99.90;;;;;;5032351;28;20049;-55
2023/11/18 07:01:19;;;;;;;19.03;7.60;;;5.00;99.90;;;;;;5032662;28;20104;-54
2023/11/18 07:03:48;;;;;;;20.73;6.63;;;5.00;99.90;;;;;;5032910;28;20125;-53
2023/11/18 07:06:21;;;;;;;22.02;8.38;;;5.10;99.90;;;;;;5032491;28;20377;-55
2023/11/18 07:08:49;;;;;;;21.57;7.20;;;5.10;99.90;;;;;;5031980;28;20073;-49
2023/11/18 07:11:15;;;;;;;22.67;7.57;;;5.20;99.90;;;;;;5031612;28;20075;-54
2023/11/18 07:13:41;;;;;;;17.27;6.53;;;5.20;99.90;;;;;;5032423;28;20114;-53
2023/11/18 07:16:08;;;;;;;21.37;7.67;;;5.30;99.90;;;;;;5032239;28;20280;-53
2023/11/18 07:18:37;;;;;;;23.20;7.43;;;5.30;99.90;;;;;;5031759;28;20036;-52
2023/11/18 07:21:06;;;;;;;17.67;6.40;;;5.30;99.90;;;;;;5032099;28;20079;-54
2023/11/18 07:23:33;;;;;;;20.45;7.72;;;5.40;99.90;;;;;;5032166;28;20475;-53
2023/11/18 07:25:58;;;;;;;18.90;7.57;;;5.40;99.90;;;;;;5032291;28;20116;-54
2023/11/18 07:28:24;;;;;;;17.00;5.90;;;5.40;99.90;;;;;;5031685;28;20446;-54
2023/11/18 07:30:50;;;;;;;20.07;8.17;;;5.40;99.90;;;;;;5031837;28;20029;-54
2023/11/18 07:33:19;;;;;;;19.73;6.60;;;5.40;99.90;;;;;;5032007;28;20036;-54
2023/11/18 07:35:48;;;;;;;19.05;6.18;;;5.50;99.90;;;;;;5032018;28;20033;-55
2023/11/18 07:38:20;;;;;;;15.10;6.18;;;5.40;99.90;;;;;;5031667;28;20398;-53
2023/11/18 07:40:47;;;;;;;18.57;7.23;;;5.40;99.90;;;;;;5031975;28;20034;-53
2023/11/18 07:43:13;;;;;;;17.90;6.13;;;5.40;99.90;;;;;;5030809;28;20059;-54
2023/11/18 07:45:39;;;;;;;17.80;7.30;;;5.40;99.90;;;;;;5032001;28;20037;-50
2023/11/18 07:48:06;;;;;;;18.73;6.43;;;5.40;99.90;;;;;;5032871;28;20037;-54
2023/11/18 07:50:35;;;;;;;13.07;5.80;;;5.40;99.90;;;;;;5032535;28;20037;-54
2023/11/18 07:53:01;;;;;;;15.63;5.55;;;5.50;99.90;;;;;;5031595;28;20041;-52
2023/11/18 07:55:28;;;;;;;18.77;7.50;;;5.60;99.90;;;;;;5031574;28;20079;-51
2023/11/18 07:57:54;;;;;;;12.70;5.37;;;5.60;99.90;;;;;;5031451;28;20026;-51
2023/11/18 08:00:19;;;;;;;16.27;5.90;;;5.60;99.90;;;;;;5030915;28;20052;-55
2023/11/18 08:02:45;;;;;;;17.90;6.53;;;5.60;99.90;;;;;;5031842;28;20037;-54
2023/11/18 08:05:14;;;;;;;16.83;6.37;;;5.60;99.90;;;;;;5031373;28;20043;-54
2023/11/18 08:07:40;;;;;;;14.90;6.72;;;5.70;99.90;;;;;;5031515;28;20041;-51
2023/11/18 08:10:07;;;;;;;13.20;5.10;;;5.60;99.90;;;;;;5031666;28;20034;-53
2023/11/18 08:12:32;;;;;;;15.37;6.50;;;5.70;99.90;;;;;;5031546;28;20067;-54
2023/11/18 08:15:00;;;;;;;15.73;6.37;;;5.70;99.90;;;;;;5031783;28;20508;-53
2023/11/18 08:17:26;;;;;;;19.00;7.40;;;5.70;99.90;;;;;;5031438;28;20053;-53
2023/11/18 08:19:52;;;;;;;15.97;5.57;;;5.80;99.90;;;;;;5031071;28;20060;-55
2023/11/18 08:22:18;;;;;;;13.30;5.57;;;5.80;99.90;;;;;;5031309;28;20394;-55
2023/11/18 08:24:45;;;;;;;22.23;8.73;;;5.80;99.90;;;;;;5031447;28;20029;-54
2023/11/18 08:27:11;;;;;;;19.67;7.13;;;5.90;99.90;;;;;;5031040;28;20033;-54
2023/11/18 08:29:38;;;;;;;15.33;5.90;;;6.00;99.90;;;;;;5030777;28;20033;-54
2023/11/18 08:32:06;;;;;;;13.50;5.30;;;6.00;99.90;;;;;;5031698;28;20347;-55
2023/11/18 08:34:33;;;;;;;14.27;5.60;;;6.00;99.90;;;;;;5031009;28;20124;-54
2023/11/18 08:36:59;;;;;;;12.13;5.17;;;6.00;99.90;;;;;;5031112;28;20021;-55
2023/11/18 08:39:26;;;;;;;13.00;5.30;;;6.00;99.90;;;;;;5030978;28;20052;-52
2023/11/18 08:41:51;;;;;;;15.40;5.57;;;6.10;99.90;;;;;;5030960;28;20041;-53
2023/11/18 08:44:17;;;;;;;15.20;5.67;;;6.10;99.90;;;;;;5031043;28;20038;-55
2023/11/18 08:46:43;;;;;;;14.97;5.73;;;6.10;99.90;;;;;;5031063;28;20041;-54
2023/11/18 08:49:10;;;;;;;15.10;6.47;;;6.10;99.90;;;;;;5030506;28;20056;-50
2023/11/18 08:51:38;;;;;;;14.47;6.00;;;6.20;99.90;;;;;;5030880;28;20448;-53
2023/11/18 08:54:22;;;;;;;16.13;5.20;;;6.20;99.90;;;;;;5030719;28;20506;-54
2023/11/18 08:56:50;;;;;;;11.93;4.63;;;6.20;99.90;;;;;;5030910;28;20037;-53
2023/11/18 08:59:24;;;;;;;11.95;5.05;;;6.30;99.90;;;;;;5030333;28;20030;-52
2023/11/18 09:01:55;;;;;;;12.53;5.10;;;6.40;99.90;;;;;;5030914;28;20113;-54
2023/11/18 09:04:24;;;;;;;11.00;4.77;;;6.30;99.90;;;;;;5031281;28;20128;-54
2023/11/18 09:06:54;;;;;;;13.88;4.63;;;6.40;99.90;;;;;;5030762;28;20490;-53
2023/11/18 09:09:26;;;;;;;14.77;5.05;;;6.30;99.90;;;;;;5030225;28;20101;-50
2023/11/18 09:11:57;;;;;;;11.97;4.77;;;6.40;99.90;;;;;;5031145;28;20037;-55
2023/11/18 09:14:25;;;;;;;14.20;5.30;;;6.40;99.90;;;;;;5030531;28;20060;-54
2023/11/18 09:16:51;;;;;;;10.63;4.60;;;6.40;99.90;;;;;;5029399;28;20087;-54
2023/11/18 09:19:19;;;;;;;6.23;2.47;;;6.40;99.90;;;;;;5030382;28;20029;-54
2023/11/18 09:21:45;;;;;;;10.67;4.27;;;6.50;99.90;;;;;;5031296;28;20029;-51
2023/11/18 09:24:13;;;;;;;34.70;13.63;;;6.50;99.90;;;;;;5030824;28;20029;-50
2023/11/18 09:26:39;;;;;;;9.23;4.10;;;6.60;99.90;;;;;;5030902;28;20117;-50
2023/11/18 09:29:08;;;;;;;11.10;4.23;;;6.60;99.90;;;;;;5030177;28;20032;-53
2023/11/18 09:31:36;;;;;;;12.68;5.40;;;6.60;99.90;;;;;;5030953;28;20041;-53
2023/11/18 09:34:06;;;;;;;7.13;3.33;;;6.60;99.90;;;;;;5031229;28;20037;-52
2023/11/18 09:36:33;;;;;;;8.90;3.93;;;6.70;99.90;;;;;;5034858;28;20029;-55
2023/11/18 09:38:59;;;;;;;10.13;4.07;;;6.70;99.90;;;;;;5034683;28;20112;-53
2023/11/18 09:41:26;;;;;;;8.37;3.60;;;6.70;99.90;;;;;;5034439;28;20030;-55
2023/11/18 09:43:56;;;;;;;8.37;3.60;;;6.70;99.90;;;;;;5034430;28;20022;-55
2023/11/18 09:46:27;;;;;;;10.07;3.90;;;6.80;99.90;;;;;;5034256;28;20034;-51
2023/11/18 09:49:17;;;;;;;9.93;3.40;;;6.80;99.90;;;;;;5033850;28;20490;-51
2023/11/18 09:51:47;;;;;;;9.70;3.60;;;6.80;99.90;;;;;;5034014;28;20375;-54
2023/11/18 09:54:24;;;;;;;9.27;3.23;;;6.90;99.90;;;;;;5033861;28;20034;-53
2023/11/18 09:57:14;;;;;;;8.27;3.20;;;6.90;99.90;;;;;;5034076;28;20535;-54
2023/11/18 10:00:10;;;;;;;7.87;3.20;;;6.90;99.90;;;;;;5033689;28;20025;-53
2023/11/18 10:02:39;;;;;;;7.40;3.27;;;6.90;99.90;;;;;;5034143;28;20485;-54
2023/11/18 10:05:12;;;;;;;10.30;3.42;;;6.90;99.90;;;;;;5033764;28;20430;-55
2023/11/18 10:07:40;;;;;;;9.33;3.50;;;7.00;99.90;;;;;;5033923;28;20478;-53
2023/11/18 10:10:14;;;;;;;9.10;3.65;;;7.00;99.90;;;;;;5033434;28;20037;-55
2023/11/18 10:12:44;;;;;;;15.20;3.97;;;7.10;99.90;;;;;;5033598;28;20120;-56
2023/11/18 10:15:13;;;;;;;9.57;2.93;;;7.10;99.90;;;;;;5033476;28;20440;-52
2023/11/18 10:18:06;;;;;;;7.68;3.33;;;7.10;99.90;;;;;;5033716;28;20084;-54
2023/11/18 10:20:44;;;;;;;8.30;2.90;;;7.20;99.90;;;;;;5033558;28;20501;-55
2023/11/18 10:23:11;;;;;;;8.17;3.57;;;7.20;99.90;;;;;;5033774;28;20029;-55
2023/11/18 10:25:42;;;;;;;21.50;8.60;;;7.20;99.90;;;;;;5033681;28;20132;-55
2023/11/18 10:28:10;;;;;;;9.17;3.40;;;7.20;99.90;;;;;;5033224;28;20042;-53
2023/11/18 10:30:47;;;;;;;8.03;3.43;;;7.30;99.90;;;;;;5033477;28;20041;-52
2023/11/18 10:33:16;;;;;;;7.60;3.30;;;7.30;99.90;;;;;;5031974;28;20064;-52
2023/11/18 10:35:55;;;;;;;5.83;2.60;;;7.40;99.90;;;;;;5033085;28;20564;-56
2023/11/18 10:38:25;;;;;;;7.45;3.17;;;7.40;99.90;;;;;;5033192;28;20343;-54
2023/11/18 10:40:55;;;;;;;8.27;3.10;;;7.40;99.90;;;;;;5032993;28;20101;-56
2023/11/18 10:43:24;;;;;;;6.17;2.63;;;7.50;99.90;;;;;;5032942;28;20037;-55
2023/11/18 10:46:13;;;;;;;13.48;2.90;;;7.50;99.90;;;;;;5031860;28;20079;-54
2023/11/18 10:48:49;;;;;;;7.53;3.42;;;7.60;99.90;;;;;;5032322;28;20064;-55
2023/11/18 10:51:19;;;;;;;6.60;3.03;;;7.60;99.90;;;;;;5032877;28;20104;-52
2023/11/18 10:54:03;;;;;;;5.22;2.60;;;7.50;99.90;;;;;;5032690;28;20044;-55
2023/11/18 10:56:30;;;;;;;9.37;3.93;;;7.60;99.90;;;;;;5032602;28;20068;-53
2023/11/18 10:59:06;;;;;;;7.67;2.93;;;7.60;99.90;;;;;;5032239;28;20043;-56
2023/11/18 11:01:33;;;;;;;7.03;3.00;;;7.70;99.90;;;;;;5032673;28;20382;-53
2023/11/18 11:03:59;;;;;;;7.83;2.80;;;7.60;99.90;;;;;;5032566;28;20048;-56
2023/11/18 11:06:30;;;;;;;5.80;2.20;;;7.60;99.90;;;;;;5032782;28;20126;-55
2023/11/18 11:08:58;;;;;;;8.10;2.87;;;7.70;99.90;;;;;;5031952;28;20049;-55
2023/11/18 11:11:26;;;;;;;7.57;3.00;;;7.70;99.90;;;;;;5032238;28;20065;-52
2023/11/18 11:14:00;;;;;;;6.90;2.70;;;7.70;99.90;;;;;;5032211;28;20034;-56
2023/11/18 11:16:44;;;;;;;6.73;2.60;;;7.70;99.90;;;;;;5032157;28;20065;-55
2023/11/18 11:19:26;;;;;;;4.87;2.13;;;7.70;99.90;;;;;;5031713;28;20063;-56
2023/11/18 11:22:11;;;;;;;5.47;2.60;;;7.70;99.90;;;;;;5032044;28;20030;-55
2023/11/18 11:24:49;;;;;;;7.70;3.37;;;7.80;99.90;;;;;;5032482;28;20487;-56
2023/11/18 11:27:35;;;;;;;7.80;3.07;;;7.70;99.90;;;;;;5032231;28;20083;-53
2023/11/18 11:30:31;;;;;;;6.77;3.40;;;7.70;99.90;;;;;;5031846;28;20037;-54
2023/11/18 11:33:28;;;;;;;11.60;2.77;;;7.80;99.90;;;;;;5023649;28;20051;-51
2023/11/18 11:35:58;;;;;;;7.67;3.13;;;7.80;99.90;;;;;;5031808;28;20030;-55
2023/11/18 11:38:24;;;;;;;8.87;3.20;;;7.80;99.90;;;;;;5031486;28;20097;-53
2023/11/18 11:40:52;;;;;;;7.40;3.20;;;7.80;99.90;;;;;;5031549;28;20562;-53
2023/11/18 11:43:21;;;;;;;7.77;3.57;;;7.80;99.90;;;;;;5031822;28;20370;-51
2023/11/18 11:45:55;;;;;;;8.48;2.75;;;7.80;99.90;;;;;;5031629;28;20059;-50
2023/11/18 11:48:27;;;;;;;4.57;2.60;;;7.80;99.90;;;;;;5031622;28;20049;-52
2023/11/18 11:51:20;;;;;;;5.90;2.90;;;7.70;99.90;;;;;;5031488;28;20367;-54
2023/11/18 11:54:15;;;;;;;6.80;2.93;;;7.70;99.90;;;;;;5031243;28;20029;-52
2023/11/18 11:56:49;;;;;;;10.23;3.43;;;7.70;99.90;;;;;;5031196;28;20446;-55
2023/11/18 11:59:46;;;;;;;7.77;2.87;;;7.80;99.90;;;;;;5030830;28;20036;-54
2023/11/18 12:02:18;;;;;;;10.53;3.73;;;7.80;99.90;;;;;;4997055;28;20037;-51
2023/11/18 12:04:52;;;;;;;9.97;3.93;;;7.80;99.90;;;;;;5031328;28;20456;-51
2023/11/18 12:07:20;;;;;;;10.03;3.80;;;7.80;99.90;;;;;;5031342;28;20033;-53
2023/11/18 12:09:47;;;;;;;10.00;2.90;;;7.80;99.90;;;;;;5031082;28;20052;-52
2023/11/18 12:12:20;;;;;;;8.50;3.80;;;7.80;99.90;;;;;;5030175;28;20048;-51
2023/11/18 12:15:17;;;;;;;7.70;3.40;;;7.80;99.90;;;;;;5031415;28;20041;-51
2023/11/18 12:18:00;;;;;;;12.27;3.30;;;7.80;99.90;;;;;;5031226;28;20033;-53
2023/11/18 12:20:45;;;;;;;11.07;4.00;;;7.70;99.90;;;;;;5030842;28;20033;-50
2023/11/18 12:23:17;;;;;;;7.73;3.30;;;7.70;99.90;;;;;;5031263;28;20041;-54
2023/11/18 12:25:45;;;;;;;7.37;2.97;;;7.70;99.90;;;;;;5030953;28;20033;-53
2023/11/18 12:28:15;;;;;;;7.17;3.17;;;7.60;99.90;;;;;;5031087;28;20099;-54
2023/11/18 12:30:57;;;;;;;9.57;4.37;;;7.60;99.90;;;;;;5030742;28;20025;-55
2023/11/18 12:33:26;;;;;;;8.93;3.37;;;7.60;99.90;;;;;;5030821;28;20421;-54
2023/11/18 12:35:54;;;;;;;16.20;6.90;;;7.60;99.90;;;;;;5030888;28;20029;-54
2023/11/18 12:38:58;;;;;;;10.20;4.07;;;7.60;99.90;;;;;;5030416;28;20040;-55
2023/11/18 12:41:29;;;;;;;9.23;3.60;;;7.60;99.90;;;;;;5030572;28;20104;-55
2023/11/18 12:44:35;;;;;;;10.90;3.83;;;7.50;99.90;;;;;;5030689;28;20117;-50
2023/11/18 12:47:18;;;;;;;7.10;3.27;;;7.50;99.90;;;;;;5030801;28;20074;-54
2023/11/18 12:49:54;;;;;;;7.67;3.10;;;7.50;99.90;;;;;;5030120;28;20044;-55
2023/11/18 12:52:21;;;;;;;9.27;3.53;;;7.50;99.90;;;;;;5030678;28;20128;-54
2023/11/18 12:54:50;;;;;;;8.07;3.37;;;7.50;99.90;;;;;;5030315;28;20067;-51
2023/11/18 12:57:16;;;;;;;;;;;7.60;99.90;;;;;;5031164;28;20037;-50
2023/11/18 12:59:43;;;;;;;6.73;3.00;;;7.50;99.90;;;;;;5030096;28;19920;-53